sensor_id;sensor_type;location;lat;lon;timestamp;P1;durP1;ratioP1;P2;durP2;ratioP2
47529;SDS011;33272;51.922;7.730;2023-03-11T00:01:43;3.60;;;2.60;;
47529;SDS011;33272;51.922;7.730;2023-03-11T00:04:10;3.60;;;2.50;;
47529;SDS011;33272;51.922;7.730;2023-03-11T00:06:37;2.60;;;2.37;;
47529;SDS011;33272;51.922;7.730;2023-03-11T00:09:04;3.97;;;2.97;;
47529;SDS011;33272;51.922;7.730;2023-03-11T00:11:32;3.50;;;2.47;;
47529;SDS011;33272;51.922;7.730;2023-03-11T00:14:01;3.60;;;2.97;;
47529;SDS011;33272;51.922;7.730;2023-03-11T00:16:28;2.93;;;2.57;;
47529;SDS011;33272;51.922;7.730;2023-03-11T00:18:55;5.20;;;2.77;;
47529;SDS011;33272;51.922;7.730;2023-03-11T00:21:22;3.23;;;2.30;;
47529;SDS011;33272;51.922;7.730;2023-03-11T00:23:50;3.60;;;2.57;;
47529;SDS011;33272;51.922;7.730;2023-03-11T00:26:17;3.50;;;2.40;;
47529;SDS011;33272;51.922;7.730;2023-03-11T00:28:44;3.87;;;2.77;;
47529;SDS011;33272;51.922;7.730;2023-03-11T00:31:13;3.40;;;2.70;;
47529;SDS011;33272;51.922;7.730;2023-03-11T00:33:40;3.23;;;2.80;;
47529;SDS011;33272;51.922;7.730;2023-03-11T00:36:10;2.83;;;2.53;;
47529;SDS011;33272;51.922;7.730;2023-03-11T00:38:48;5.90;;;2.43;;
47529;SDS011;33272;51.922;7.730;2023-03-11T00:41:15;5.70;;;2.97;;
47529;SDS011;33272;51.922;7.730;2023-03-11T00:43:42;5.30;;;2.60;;
47529;SDS011;33272;51.922;7.730;2023-03-11T00:46:09;4.00;;;2.53;;
47529;SDS011;33272;51.922;7.730;2023-03-11T00:48:38;3.27;;;2.73;;
47529;SDS011;33272;51.922;7.730;2023-03-11T00:51:05;4.10;;;2.20;;
47529;SDS011;33272;51.922;7.730;2023-03-11T00:53:32;3.70;;;2.83;;
47529;SDS011;33272;51.922;7.730;2023-03-11T00:56:04;4.37;;;2.67;;
47529;SDS011;33272;51.922;7.730;2023-03-11T00:58:33;2.90;;;2.60;;
47529;SDS011;33272;51.922;7.730;2023-03-11T01:01:00;3.07;;;2.30;;
47529;SDS011;33272;51.922;7.730;2023-03-11T01:03:31;3.80;;;2.60;;
47529;SDS011;33272;51.922;7.730;2023-03-11T01:06:00;3.90;;;2.70;;
47529;SDS011;33272;51.922;7.730;2023-03-11T01:08:27;2.50;;;2.30;;
47529;SDS011;33272;51.922;7.730;2023-03-11T01:10:55;4.50;;;2.47;;
47529;SDS011;33272;51.922;7.730;2023-03-11T01:13:23;4.10;;;2.60;;
47529;SDS011;33272;51.922;7.730;2023-03-11T01:15:50;4.30;;;2.53;;
47529;SDS011;33272;51.922;7.730;2023-03-11T01:18:17;2.77;;;2.30;;
47529;SDS011;33272;51.922;7.730;2023-03-11T01:20:45;3.57;;;2.63;;
47529;SDS011;33272;51.922;7.730;2023-03-11T01:23:15;2.70;;;2.50;;
47529;SDS011;33272;51.922;7.730;2023-03-11T01:25:43;3.37;;;2.47;;
47529;SDS011;33272;51.922;7.730;2023-03-11T01:28:11;2.80;;;2.50;;
47529;SDS011;33272;51.922;7.730;2023-03-11T01:30:39;4.30;;;2.40;;
47529;SDS011;33272;51.922;7.730;2023-03-11T01:33:07;3.17;;;2.60;;
47529;SDS011;33272;51.922;7.730;2023-03-11T01:35:39;2.73;;;2.30;;
47529;SDS011;33272;51.922;7.730;2023-03-11T01:38:07;3.00;;;2.20;;
47529;SDS011;33272;51.922;7.730;2023-03-11T01:40:37;4.83;;;2.40;;
47529;SDS011;33272;51.922;7.730;2023-03-11T01:43:34;5.70;;;2.60;;
47529;SDS011;33272;51.922;7.730;2023-03-11T01:46:08;5.00;;;2.13;;
47529;SDS011;33272;51.922;7.730;2023-03-11T01:48:39;3.37;;;2.50;;
47529;SDS011;33272;51.922;7.730;2023-03-11T01:51:06;3.50;;;2.60;;
47529;SDS011;33272;51.922;7.730;2023-03-11T01:53:34;4.63;;;2.50;;
47529;SDS011;33272;51.922;7.730;2023-03-11T01:56:03;4.80;;;2.37;;
47529;SDS011;33272;51.922;7.730;2023-03-11T01:58:31;3.23;;;2.27;;
47529;SDS011;33272;51.922;7.730;2023-03-11T02:01:04;4.90;;;2.20;;
47529;SDS011;33272;51.922;7.730;2023-03-11T02:03:33;2.83;;;2.13;;
47529;SDS011;33272;51.922;7.730;2023-03-11T02:06:05;3.03;;;2.10;;
47529;SDS011;33272;51.922;7.730;2023-03-11T02:08:35;2.97;;;1.80;;
47529;SDS011;33272;51.922;7.730;2023-03-11T02:11:04;3.33;;;2.10;;
47529;SDS011;33272;51.922;7.730;2023-03-11T02:13:33;5.07;;;2.77;;
47529;SDS011;33272;51.922;7.730;2023-03-11T02:16:02;3.13;;;1.80;;
47529;SDS011;33272;51.922;7.730;2023-03-11T02:18:30;3.37;;;2.17;;
47529;SDS011;33272;51.922;7.730;2023-03-11T02:21:00;3.90;;;2.40;;
47529;SDS011;33272;51.922;7.730;2023-03-11T02:23:36;2.63;;;2.00;;
47529;SDS011;33272;51.922;7.730;2023-03-11T02:26:23;2.77;;;2.20;;
47529;SDS011;33272;51.922;7.730;2023-03-11T02:28:59;3.07;;;2.00;;
47529;SDS011;33272;51.922;7.730;2023-03-11T02:31:28;3.73;;;2.20;;
47529;SDS011;33272;51.922;7.730;2023-03-11T02:33:56;3.70;;;2.23;;
47529;SDS011;33272;51.922;7.730;2023-03-11T02:36:29;4.03;;;2.60;;
47529;SDS011;33272;51.922;7.730;2023-03-11T02:39:01;4.73;;;2.47;;
47529;SDS011;33272;51.922;7.730;2023-03-11T02:41:30;3.57;;;2.43;;
47529;SDS011;33272;51.922;7.730;2023-03-11T02:44:01;4.77;;;2.70;;
47529;SDS011;33272;51.922;7.730;2023-03-11T02:46:30;5.37;;;2.67;;
47529;SDS011;33272;51.922;7.730;2023-03-11T02:48:57;3.07;;;2.20;;
47529;SDS011;33272;51.922;7.730;2023-03-11T02:51:25;3.97;;;2.70;;
47529;SDS011;33272;51.922;7.730;2023-03-11T02:53:54;6.90;;;2.93;;
47529;SDS011;33272;51.922;7.730;2023-03-11T02:56:25;5.53;;;2.60;;
47529;SDS011;33272;51.922;7.730;2023-03-11T02:58:52;4.83;;;2.70;;
47529;SDS011;33272;51.922;7.730;2023-03-11T03:01:21;3.60;;;2.10;;
47529;SDS011;33272;51.922;7.730;2023-03-11T03:03:48;3.97;;;2.30;;
47529;SDS011;33272;51.922;7.730;2023-03-11T03:06:15;2.97;;;2.23;;
47529;SDS011;33272;51.922;7.730;2023-03-11T03:08:43;3.33;;;2.30;;
47529;SDS011;33272;51.922;7.730;2023-03-11T03:11:10;5.33;;;2.30;;
47529;SDS011;33272;51.922;7.730;2023-03-11T03:13:37;4.50;;;2.67;;
47529;SDS011;33272;51.922;7.730;2023-03-11T03:16:04;5.53;;;2.33;;
47529;SDS011;33272;51.922;7.730;2023-03-11T03:18:33;4.70;;;2.07;;
47529;SDS011;33272;51.922;7.730;2023-03-11T03:21:00;2.53;;;1.90;;
47529;SDS011;33272;51.922;7.730;2023-03-11T03:23:27;4.17;;;2.20;;
47529;SDS011;33272;51.922;7.730;2023-03-11T03:25:59;4.27;;;2.13;;
47529;SDS011;33272;51.922;7.730;2023-03-11T03:28:26;4.07;;;2.20;;
47529;SDS011;33272;51.922;7.730;2023-03-11T03:30:53;5.40;;;2.40;;
47529;SDS011;33272;51.922;7.730;2023-03-11T03:33:20;5.13;;;2.00;;
47529;SDS011;33272;51.922;7.730;2023-03-11T03:35:49;6.13;;;2.20;;
47529;SDS011;33272;51.922;7.730;2023-03-11T03:38:15;4.37;;;2.00;;
47529;SDS011;33272;51.922;7.730;2023-03-11T03:40:44;4.43;;;2.10;;
47529;SDS011;33272;51.922;7.730;2023-03-11T03:43:12;3.00;;;2.43;;
47529;SDS011;33272;51.922;7.730;2023-03-11T03:45:39;4.43;;;2.00;;
47529;SDS011;33272;51.922;7.730;2023-03-11T03:48:06;5.33;;;2.33;;
47529;SDS011;33272;51.922;7.730;2023-03-11T03:50:33;4.20;;;2.00;;
47529;SDS011;33272;51.922;7.730;2023-03-11T03:53:01;2.93;;;1.80;;
47529;SDS011;33272;51.922;7.730;2023-03-11T03:55:28;3.67;;;2.20;;
47529;SDS011;33272;51.922;7.730;2023-03-11T03:57:56;8.93;;;2.33;;
47529;SDS011;33272;51.922;7.730;2023-03-11T04:00:23;6.03;;;2.23;;
47529;SDS011;33272;51.922;7.730;2023-03-11T04:02:50;5.07;;;2.17;;
47529;SDS011;33272;51.922;7.730;2023-03-11T04:05:17;4.60;;;2.53;;
47529;SDS011;33272;51.922;7.730;2023-03-11T04:07:44;5.70;;;2.20;;
47529;SDS011;33272;51.922;7.730;2023-03-11T04:10:13;3.80;;;1.70;;
47529;SDS011;33272;51.922;7.730;2023-03-11T04:12:40;5.63;;;1.90;;
47529;SDS011;33272;51.922;7.730;2023-03-11T04:15:08;5.63;;;2.10;;
47529;SDS011;33272;51.922;7.730;2023-03-11T04:17:36;3.73;;;1.90;;
47529;SDS011;33272;51.922;7.730;2023-03-11T04:20:03;3.27;;;1.60;;
47529;SDS011;33272;51.922;7.730;2023-03-11T04:22:32;5.23;;;2.27;;
47529;SDS011;33272;51.922;7.730;2023-03-11T04:24:59;4.70;;;1.60;;
47529;SDS011;33272;51.922;7.730;2023-03-11T04:27:28;5.10;;;2.40;;
47529;SDS011;33272;51.922;7.730;2023-03-11T04:29:55;4.30;;;1.80;;
47529;SDS011;33272;51.922;7.730;2023-03-11T04:32:22;6.17;;;1.90;;
47529;SDS011;33272;51.922;7.730;2023-03-11T04:34:49;2.57;;;1.67;;
47529;SDS011;33272;51.922;7.730;2023-03-11T04:37:16;3.30;;;2.00;;
47529;SDS011;33272;51.922;7.730;2023-03-11T04:39:43;4.73;;;1.57;;
47529;SDS011;33272;51.922;7.730;2023-03-11T04:42:10;7.37;;;2.37;;
47529;SDS011;33272;51.922;7.730;2023-03-11T04:44:39;3.10;;;1.90;;
47529;SDS011;33272;51.922;7.730;2023-03-11T04:47:06;3.50;;;1.47;;
47529;SDS011;33272;51.922;7.730;2023-03-11T04:49:33;2.70;;;1.77;;
47529;SDS011;33272;51.922;7.730;2023-03-11T04:52:00;5.47;;;1.90;;
47529;SDS011;33272;51.922;7.730;2023-03-11T04:54:27;3.53;;;1.80;;
47529;SDS011;33272;51.922;7.730;2023-03-11T04:56:55;7.37;;;2.30;;
47529;SDS011;33272;51.922;7.730;2023-03-11T04:59:22;3.07;;;1.83;;
47529;SDS011;33272;51.922;7.730;2023-03-11T05:01:50;3.53;;;1.90;;
47529;SDS011;33272;51.922;7.730;2023-03-11T05:04:17;3.43;;;1.50;;
47529;SDS011;33272;51.922;7.730;2023-03-11T05:06:44;4.80;;;1.70;;
47529;SDS011;33272;51.922;7.730;2023-03-11T05:09:12;5.50;;;1.83;;
47529;SDS011;33272;51.922;7.730;2023-03-11T05:11:39;4.30;;;2.00;;
47529;SDS011;33272;51.922;7.730;2023-03-11T05:14:06;4.03;;;1.80;;
47529;SDS011;33272;51.922;7.730;2023-03-11T05:16:33;3.50;;;1.97;;
47529;SDS011;33272;51.922;7.730;2023-03-11T05:19:02;4.10;;;1.97;;
47529;SDS011;33272;51.922;7.730;2023-03-11T05:21:49;3.73;;;1.80;;
47529;SDS011;33272;51.922;7.730;2023-03-11T05:24:16;3.23;;;1.53;;
47529;SDS011;33272;51.922;7.730;2023-03-11T05:26:43;6.90;;;2.20;;
47529;SDS011;33272;51.922;7.730;2023-03-11T05:29:11;6.77;;;1.70;;
47529;SDS011;33272;51.922;7.730;2023-03-11T05:31:38;6.30;;;1.80;;
47529;SDS011;33272;51.922;7.730;2023-03-11T05:34:06;5.80;;;1.83;;
47529;SDS011;33272;51.922;7.730;2023-03-11T05:36:33;4.03;;;1.97;;
47529;SDS011;33272;51.922;7.730;2023-03-11T05:39:00;3.60;;;1.70;;
47529;SDS011;33272;51.922;7.730;2023-03-11T05:41:27;5.67;;;1.67;;
47529;SDS011;33272;51.922;7.730;2023-03-11T05:43:54;6.20;;;2.27;;
47529;SDS011;33272;51.922;7.730;2023-03-11T05:46:21;4.77;;;1.87;;
47529;SDS011;33272;51.922;7.730;2023-03-11T05:48:48;4.57;;;1.90;;
47529;SDS011;33272;51.922;7.730;2023-03-11T05:51:17;4.50;;;2.10;;
47529;SDS011;33272;51.922;7.730;2023-03-11T05:53:44;5.83;;;2.80;;
47529;SDS011;33272;51.922;7.730;2023-03-11T05:56:13;2.67;;;1.50;;
47529;SDS011;33272;51.922;7.730;2023-03-11T05:58:41;5.03;;;1.90;;
47529;SDS011;33272;51.922;7.730;2023-03-11T06:01:08;3.60;;;2.43;;
47529;SDS011;33272;51.922;7.730;2023-03-11T06:03:36;10.63;;;2.77;;
47529;SDS011;33272;51.922;7.730;2023-03-11T06:06:03;3.27;;;2.00;;
47529;SDS011;33272;51.922;7.730;2023-03-11T06:08:33;6.67;;;2.03;;
47529;SDS011;33272;51.922;7.730;2023-03-11T06:11:00;4.33;;;2.00;;
47529;SDS011;33272;51.922;7.730;2023-03-11T06:13:28;3.57;;;1.80;;
47529;SDS011;33272;51.922;7.730;2023-03-11T06:15:55;4.43;;;2.33;;
47529;SDS011;33272;51.922;7.730;2023-03-11T06:18:22;5.23;;;1.90;;
47529;SDS011;33272;51.922;7.730;2023-03-11T06:20:50;4.10;;;2.10;;
47529;SDS011;33272;51.922;7.730;2023-03-11T06:23:17;5.67;;;1.83;;
47529;SDS011;33272;51.922;7.730;2023-03-11T06:25:54;3.77;;;1.70;;
47529;SDS011;33272;51.922;7.730;2023-03-11T06:28:22;4.37;;;2.30;;
47529;SDS011;33272;51.922;7.730;2023-03-11T06:30:49;3.17;;;1.70;;
47529;SDS011;33272;51.922;7.730;2023-03-11T06:33:16;3.63;;;2.03;;
47529;SDS011;33272;51.922;7.730;2023-03-11T06:35:43;2.70;;;1.80;;
47529;SDS011;33272;51.922;7.730;2023-03-11T06:38:10;4.57;;;2.10;;
47529;SDS011;33272;51.922;7.730;2023-03-11T06:40:37;4.03;;;2.13;;
47529;SDS011;33272;51.922;7.730;2023-03-11T06:43:05;5.57;;;2.00;;
47529;SDS011;33272;51.922;7.730;2023-03-11T06:45:32;5.60;;;2.07;;
47529;SDS011;33272;51.922;7.730;2023-03-11T06:47:59;6.77;;;2.30;;
47529;SDS011;33272;51.922;7.730;2023-03-11T06:50:26;5.13;;;1.80;;
47529;SDS011;33272;51.922;7.730;2023-03-11T06:52:53;7.80;;;2.17;;
47529;SDS011;33272;51.922;7.730;2023-03-11T06:55:21;4.83;;;2.20;;
47529;SDS011;33272;51.922;7.730;2023-03-11T06:57:48;5.77;;;1.40;;
47529;SDS011;33272;51.922;7.730;2023-03-11T07:00:17;6.73;;;1.90;;
47529;SDS011;33272;51.922;7.730;2023-03-11T07:02:44;4.50;;;1.73;;
47529;SDS011;33272;51.922;7.730;2023-03-11T07:05:11;5.30;;;1.80;;
47529;SDS011;33272;51.922;7.730;2023-03-11T07:07:38;4.43;;;1.70;;
47529;SDS011;33272;51.922;7.730;2023-03-11T07:10:05;6.07;;;2.37;;
47529;SDS011;33272;51.922;7.730;2023-03-11T07:12:33;5.83;;;1.80;;
47529;SDS011;33272;51.922;7.730;2023-03-11T07:15:00;4.50;;;2.27;;
47529;SDS011;33272;51.922;7.730;2023-03-11T07:17:29;5.60;;;1.90;;
47529;SDS011;33272;51.922;7.730;2023-03-11T07:19:57;4.83;;;1.93;;
47529;SDS011;33272;51.922;7.730;2023-03-11T07:22:24;3.97;;;2.20;;
47529;SDS011;33272;51.922;7.730;2023-03-11T07:24:51;5.57;;;2.20;;
47529;SDS011;33272;51.922;7.730;2023-03-11T07:27:18;3.50;;;1.87;;
47529;SDS011;33272;51.922;7.730;2023-03-11T07:29:45;4.27;;;2.03;;
47529;SDS011;33272;51.922;7.730;2023-03-11T07:32:12;5.80;;;1.80;;
47529;SDS011;33272;51.922;7.730;2023-03-11T07:34:41;6.07;;;2.90;;
47529;SDS011;33272;51.922;7.730;2023-03-11T07:37:08;4.60;;;2.50;;
47529;SDS011;33272;51.922;7.730;2023-03-11T07:39:35;4.73;;;1.90;;
47529;SDS011;33272;51.922;7.730;2023-03-11T07:42:02;5.90;;;2.40;;
47529;SDS011;33272;51.922;7.730;2023-03-11T07:44:30;5.33;;;2.03;;
47529;SDS011;33272;51.922;7.730;2023-03-11T07:46:57;6.73;;;2.23;;
47529;SDS011;33272;51.922;7.730;2023-03-11T07:49:26;4.27;;;2.00;;
47529;SDS011;33272;51.922;7.730;2023-03-11T07:51:55;3.07;;;1.67;;
47529;SDS011;33272;51.922;7.730;2023-03-11T07:54:22;3.97;;;2.00;;
47529;SDS011;33272;51.922;7.730;2023-03-11T07:56:49;4.03;;;2.10;;
47529;SDS011;33272;51.922;7.730;2023-03-11T07:59:16;3.43;;;1.73;;
47529;SDS011;33272;51.922;7.730;2023-03-11T08:01:43;4.43;;;1.93;;
47529;SDS011;33272;51.922;7.730;2023-03-11T08:04:11;5.23;;;1.90;;
47529;SDS011;33272;51.922;7.730;2023-03-11T08:06:41;4.50;;;2.10;;
47529;SDS011;33272;51.922;7.730;2023-03-11T08:09:11;6.93;;;2.33;;
47529;SDS011;33272;51.922;7.730;2023-03-11T08:11:39;3.07;;;1.93;;
47529;SDS011;33272;51.922;7.730;2023-03-11T08:14:06;3.93;;;1.87;;
47529;SDS011;33272;51.922;7.730;2023-03-11T08:16:33;4.30;;;2.00;;
47529;SDS011;33272;51.922;7.730;2023-03-11T08:19:00;7.43;;;2.60;;
47529;SDS011;33272;51.922;7.730;2023-03-11T08:21:28;3.07;;;1.80;;
47529;SDS011;33272;51.922;7.730;2023-03-11T08:23:56;7.07;;;2.67;;
47529;SDS011;33272;51.922;7.730;2023-03-11T08:26:26;2.83;;;1.87;;
47529;SDS011;33272;51.922;7.730;2023-03-11T08:28:54;4.47;;;1.97;;
47529;SDS011;33272;51.922;7.730;2023-03-11T08:31:23;4.77;;;2.70;;
47529;SDS011;33272;51.922;7.730;2023-03-11T08:33:55;4.90;;;2.83;;
47529;SDS011;33272;51.922;7.730;2023-03-11T08:36:24;5.90;;;2.40;;
47529;SDS011;33272;51.922;7.730;2023-03-11T08:38:52;9.03;;;2.10;;
47529;SDS011;33272;51.922;7.730;2023-03-11T08:41:19;2.83;;;1.80;;
47529;SDS011;33272;51.922;7.730;2023-03-11T08:43:48;3.93;;;2.20;;
47529;SDS011;33272;51.922;7.730;2023-03-11T08:46:22;5.60;;;2.40;;
47529;SDS011;33272;51.922;7.730;2023-03-11T08:48:52;3.30;;;2.13;;
47529;SDS011;33272;51.922;7.730;2023-03-11T08:51:20;4.00;;;2.00;;
47529;SDS011;33272;51.922;7.730;2023-03-11T08:53:48;5.17;;;1.73;;
47529;SDS011;33272;51.922;7.730;2023-03-11T08:56:16;4.00;;;1.70;;
47529;SDS011;33272;51.922;7.730;2023-03-11T08:58:44;4.33;;;1.43;;
47529;SDS011;33272;51.922;7.730;2023-03-11T09:01:14;3.70;;;2.20;;
47529;SDS011;33272;51.922;7.730;2023-03-11T09:03:41;3.33;;;1.50;;
47529;SDS011;33272;51.922;7.730;2023-03-11T09:06:10;6.30;;;2.20;;
47529;SDS011;33272;51.922;7.730;2023-03-11T09:08:40;3.67;;;1.57;;
47529;SDS011;33272;51.922;7.730;2023-03-11T09:11:07;3.73;;;1.47;;
47529;SDS011;33272;51.922;7.730;2023-03-11T09:13:37;2.27;;;1.57;;
47529;SDS011;33272;51.922;7.730;2023-03-11T09:16:05;3.30;;;1.27;;
47529;SDS011;33272;51.922;7.730;2023-03-11T09:18:34;4.70;;;1.60;;
47529;SDS011;33272;51.922;7.730;2023-03-11T09:21:01;5.57;;;1.67;;
47529;SDS011;33272;51.922;7.730;2023-03-11T09:23:28;6.23;;;2.13;;
47529;SDS011;33272;51.922;7.730;2023-03-11T09:25:56;3.40;;;1.73;;
47529;SDS011;33272;51.922;7.730;2023-03-11T09:28:23;5.87;;;1.73;;
47529;SDS011;33272;51.922;7.730;2023-03-11T09:30:50;3.37;;;1.43;;
47529;SDS011;33272;51.922;7.730;2023-03-11T09:33:17;4.27;;;1.83;;
47529;SDS011;33272;51.922;7.730;2023-03-11T09:35:45;2.57;;;1.57;;
47529;SDS011;33272;51.922;7.730;2023-03-11T09:38:12;3.70;;;1.27;;
47529;SDS011;33272;51.922;7.730;2023-03-11T09:40:44;3.17;;;1.50;;
47529;SDS011;33272;51.922;7.730;2023-03-11T09:43:24;4.20;;;1.60;;
47529;SDS011;33272;51.922;7.730;2023-03-11T09:46:05;4.57;;;1.67;;
47529;SDS011;33272;51.922;7.730;2023-03-11T09:49:09;1.93;;;1.53;;
47529;SDS011;33272;51.922;7.730;2023-03-11T09:51:49;5.40;;;1.57;;
47529;SDS011;33272;51.922;7.730;2023-03-11T09:54:36;3.30;;;1.30;;
47529;SDS011;33272;51.922;7.730;2023-03-11T09:57:08;4.63;;;1.50;;
47529;SDS011;33272;51.922;7.730;2023-03-11T09:59:41;2.47;;;1.17;;
47529;SDS011;33272;51.922;7.730;2023-03-11T10:02:09;2.20;;;1.40;;
47529;SDS011;33272;51.922;7.730;2023-03-11T10:04:44;3.37;;;1.37;;
47529;SDS011;33272;51.922;7.730;2023-03-11T10:07:20;2.60;;;1.10;;
47529;SDS011;33272;51.922;7.730;2023-03-11T10:09:53;3.97;;;1.40;;
47529;SDS011;33272;51.922;7.730;2023-03-11T10:12:35;2.60;;;1.23;;
47529;SDS011;33272;51.922;7.730;2023-03-11T10:15:16;3.47;;;1.60;;
47529;SDS011;33272;51.922;7.730;2023-03-11T10:17:59;3.37;;;1.50;;
47529;SDS011;33272;51.922;7.730;2023-03-11T10:20:52;3.17;;;1.57;;
47529;SDS011;33272;51.922;7.730;2023-03-11T10:23:27;4.17;;;1.30;;
47529;SDS011;33272;51.922;7.730;2023-03-11T10:26:10;3.87;;;1.30;;
47529;SDS011;33272;51.922;7.730;2023-03-11T10:28:44;4.73;;;1.40;;
47529;SDS011;33272;51.922;7.730;2023-03-11T10:31:19;3.00;;;1.13;;
47529;SDS011;33272;51.922;7.730;2023-03-11T10:33:52;4.63;;;1.20;;
47529;SDS011;33272;51.922;7.730;2023-03-11T10:36:26;4.20;;;1.30;;
47529;SDS011;33272;51.922;7.730;2023-03-11T10:39:02;3.20;;;1.30;;
47529;SDS011;33272;51.922;7.730;2023-03-11T10:41:43;3.67;;;1.20;;
47529;SDS011;33272;51.922;7.730;2023-03-11T10:44:16;3.07;;;1.20;;
47529;SDS011;33272;51.922;7.730;2023-03-11T10:46:49;3.43;;;1.40;;
47529;SDS011;33272;51.922;7.730;2023-03-11T10:49:17;2.77;;;1.07;;
47529;SDS011;33272;51.922;7.730;2023-03-11T10:51:44;6.00;;;1.20;;
47529;SDS011;33272;51.922;7.730;2023-03-11T10:54:21;3.60;;;1.20;;
47529;SDS011;33272;51.922;7.730;2023-03-11T10:56:53;2.20;;;1.17;;
47529;SDS011;33272;51.922;7.730;2023-03-11T10:59:24;3.70;;;1.30;;
47529;SDS011;33272;51.922;7.730;2023-03-11T11:01:58;3.03;;;1.17;;
47529;SDS011;33272;51.922;7.730;2023-03-11T11:04:28;4.47;;;1.70;;
47529;SDS011;33272;51.922;7.730;2023-03-11T11:10:11;3.40;;;2.33;;
47529;SDS011;33272;51.922;7.730;2023-03-11T11:12:52;6.03;;;1.77;;
47529;SDS011;33272;51.922;7.730;2023-03-11T11:15:21;3.20;;;1.40;;
47529;SDS011;33272;51.922;7.730;2023-03-11T11:17:51;5.20;;;2.07;;
47529;SDS011;33272;51.922;7.730;2023-03-11T11:20:21;1.80;;;1.07;;
47529;SDS011;33272;51.922;7.730;2023-03-11T11:22:51;2.00;;;1.40;;
47529;SDS011;33272;51.922;7.730;2023-03-11T11:25:29;2.83;;;1.20;;
47529;SDS011;33272;51.922;7.730;2023-03-11T11:27:59;4.23;;;1.40;;
47529;SDS011;33272;51.922;7.730;2023-03-11T11:30:29;6.23;;;1.30;;
47529;SDS011;33272;51.922;7.730;2023-03-11T11:33:00;2.40;;;1.40;;
47529;SDS011;33272;51.922;7.730;2023-03-11T11:35:49;4.43;;;2.07;;
47529;SDS011;33272;51.922;7.730;2023-03-11T11:38:20;4.47;;;2.13;;
47529;SDS011;33272;51.922;7.730;2023-03-11T11:40:50;4.83;;;1.40;;
47529;SDS011;33272;51.922;7.730;2023-03-11T11:43:18;2.83;;;1.20;;
47529;SDS011;33272;51.922;7.730;2023-03-11T11:45:52;4.93;;;1.30;;
47529;SDS011;33272;51.922;7.730;2023-03-11T11:48:23;2.90;;;1.20;;
47529;SDS011;33272;51.922;7.730;2023-03-11T11:50:58;11.93;;;1.53;;
47529;SDS011;33272;51.922;7.730;2023-03-11T11:53:29;2.23;;;1.30;;
47529;SDS011;33272;51.922;7.730;2023-03-11T11:56:04;3.43;;;1.23;;
47529;SDS011;33272;51.922;7.730;2023-03-11T11:58:31;3.40;;;1.00;;
47529;SDS011;33272;51.922;7.730;2023-03-11T12:01:04;2.23;;;1.10;;
47529;SDS011;33272;51.922;7.730;2023-03-11T12:03:49;2.17;;;1.30;;
47529;SDS011;33272;51.922;7.730;2023-03-11T12:06:54;5.20;;;1.27;;
47529;SDS011;33272;51.922;7.730;2023-03-11T12:09:38;4.27;;;1.43;;
47529;SDS011;33272;51.922;7.730;2023-03-11T12:12:19;3.23;;;1.67;;
47529;SDS011;33272;51.922;7.730;2023-03-11T12:14:56;4.90;;;1.30;;
47529;SDS011;33272;51.922;7.730;2023-03-11T12:17:34;6.47;;;1.40;;
47529;SDS011;33272;51.922;7.730;2023-03-11T12:20:07;7.40;;;2.47;;
47529;SDS011;33272;51.922;7.730;2023-03-11T12:25:44;3.60;;;1.10;;
47529;SDS011;33272;51.922;7.730;2023-03-11T12:28:34;4.33;;;1.47;;
47529;SDS011;33272;51.922;7.730;2023-03-11T12:31:06;4.00;;;1.23;;
47529;SDS011;33272;51.922;7.730;2023-03-11T12:33:37;4.30;;;1.17;;
47529;SDS011;33272;51.922;7.730;2023-03-11T12:36:06;3.30;;;1.30;;
47529;SDS011;33272;51.922;7.730;2023-03-11T12:38:49;6.37;;;1.80;;
47529;SDS011;33272;51.922;7.730;2023-03-11T12:41:25;3.23;;;1.37;;
47529;SDS011;33272;51.922;7.730;2023-03-11T12:44:03;5.77;;;1.33;;
47529;SDS011;33272;51.922;7.730;2023-03-11T12:47:01;2.57;;;1.37;;
47529;SDS011;33272;51.922;7.730;2023-03-11T12:49:46;2.70;;;1.30;;
47529;SDS011;33272;51.922;7.730;2023-03-11T12:52:20;4.13;;;1.70;;
47529;SDS011;33272;51.922;7.730;2023-03-11T12:58:00;2.07;;;1.10;;
47529;SDS011;33272;51.922;7.730;2023-03-11T13:04:30;2.93;;;1.50;;
47529;SDS011;33272;51.922;7.730;2023-03-11T13:07:15;3.03;;;1.23;;
47529;SDS011;33272;51.922;7.730;2023-03-11T13:10:11;2.93;;;0.97;;
47529;SDS011;33272;51.922;7.730;2023-03-11T13:12:47;2.63;;;1.10;;
47529;SDS011;33272;51.922;7.730;2023-03-11T13:15:25;3.50;;;1.37;;
47529;SDS011;33272;51.922;7.730;2023-03-11T13:18:11;5.50;;;1.03;;
47529;SDS011;33272;51.922;7.730;2023-03-11T13:20:49;2.63;;;1.23;;
47529;SDS011;33272;51.922;7.730;2023-03-11T13:23:25;2.90;;;1.60;;
47529;SDS011;33272;51.922;7.730;2023-03-11T13:29:09;1.77;;;1.10;;
47529;SDS011;33272;51.922;7.730;2023-03-11T13:32:16;2.40;;;1.00;;
47529;SDS011;33272;51.922;7.730;2023-03-11T13:35:15;3.40;;;1.07;;
47529;SDS011;33272;51.922;7.730;2023-03-11T13:37:59;3.10;;;1.00;;
47529;SDS011;33272;51.922;7.730;2023-03-11T13:40:45;1.93;;;1.10;;
47529;SDS011;33272;51.922;7.730;2023-03-11T13:43:13;2.07;;;1.00;;
47529;SDS011;33272;51.922;7.730;2023-03-11T13:45:45;2.33;;;1.00;;
47529;SDS011;33272;51.922;7.730;2023-03-11T13:48:18;4.43;;;1.17;;
47529;SDS011;33272;51.922;7.730;2023-03-11T13:50:54;4.17;;;1.47;;
47529;SDS011;33272;51.922;7.730;2023-03-11T13:53:27;3.50;;;1.40;;
47529;SDS011;33272;51.922;7.730;2023-03-11T13:56:01;3.37;;;1.00;;
47529;SDS011;33272;51.922;7.730;2023-03-11T13:58:29;3.93;;;1.30;;
47529;SDS011;33272;51.922;7.730;2023-03-11T14:00:57;5.20;;;1.70;;
47529;SDS011;33272;51.922;7.730;2023-03-11T14:03:27;3.47;;;1.20;;
47529;SDS011;33272;51.922;7.730;2023-03-11T14:06:00;4.90;;;1.57;;
47529;SDS011;33272;51.922;7.730;2023-03-11T14:08:32;4.10;;;1.73;;
47529;SDS011;33272;51.922;7.730;2023-03-11T14:11:00;5.50;;;1.17;;
47529;SDS011;33272;51.922;7.730;2023-03-11T14:13:30;2.17;;;1.40;;
47529;SDS011;33272;51.922;7.730;2023-03-11T14:16:02;3.33;;;1.33;;
47529;SDS011;33272;51.922;7.730;2023-03-11T14:18:34;3.07;;;1.60;;
47529;SDS011;33272;51.922;7.730;2023-03-11T14:21:06;3.07;;;1.37;;
47529;SDS011;33272;51.922;7.730;2023-03-11T14:23:39;2.40;;;1.23;;
47529;SDS011;33272;51.922;7.730;2023-03-11T14:26:11;2.17;;;1.27;;
47529;SDS011;33272;51.922;7.730;2023-03-11T14:28:41;1.87;;;1.20;;
47529;SDS011;33272;51.922;7.730;2023-03-11T14:31:20;4.73;;;1.67;;
47529;SDS011;33272;51.922;7.730;2023-03-11T14:33:56;3.53;;;1.60;;
47529;SDS011;33272;51.922;7.730;2023-03-11T14:36:29;2.97;;;1.53;;
47529;SDS011;33272;51.922;7.730;2023-03-11T14:39:20;3.67;;;1.80;;
47529;SDS011;33272;51.922;7.730;2023-03-11T14:41:54;2.90;;;1.70;;
47529;SDS011;33272;51.922;7.730;2023-03-11T14:44:27;3.80;;;1.80;;
47529;SDS011;33272;51.922;7.730;2023-03-11T14:47:01;4.27;;;1.67;;
47529;SDS011;33272;51.922;7.730;2023-03-11T14:49:37;3.33;;;1.40;;
47529;SDS011;33272;51.922;7.730;2023-03-11T14:52:09;4.47;;;1.90;;
47529;SDS011;33272;51.922;7.730;2023-03-11T14:54:43;2.97;;;1.30;;
47529;SDS011;33272;51.922;7.730;2023-03-11T14:57:15;3.10;;;1.50;;
47529;SDS011;33272;51.922;7.730;2023-03-11T14:59:48;3.87;;;1.80;;
47529;SDS011;33272;51.922;7.730;2023-03-11T15:02:24;7.07;;;1.43;;
47529;SDS011;33272;51.922;7.730;2023-03-11T15:05:08;2.07;;;1.13;;
47529;SDS011;33272;51.922;7.730;2023-03-11T15:07:45;3.20;;;1.20;;
47529;SDS011;33272;51.922;7.730;2023-03-11T15:10:14;2.60;;;1.60;;
47529;SDS011;33272;51.922;7.730;2023-03-11T15:12:41;1.50;;;1.40;;
47529;SDS011;33272;51.922;7.730;2023-03-11T15:15:19;1.57;;;0.90;;
47529;SDS011;33272;51.922;7.730;2023-03-11T15:17:53;2.93;;;1.00;;
47529;SDS011;33272;51.922;7.730;2023-03-11T15:20:23;2.50;;;1.17;;
47529;SDS011;33272;51.922;7.730;2023-03-11T15:22:55;2.13;;;1.20;;
47529;SDS011;33272;51.922;7.730;2023-03-11T15:25:26;5.73;;;1.50;;
47529;SDS011;33272;51.922;7.730;2023-03-11T15:27:55;4.67;;;1.50;;